Waukesha, WI (53186)

1:25 AM CDT on August 29, 2015 (GMT -0500)
Singing Hills Subdivision | | Change Station
CLOSE
Current Station
Personal Weather Station
Location: Waukesha, WI
Elevation: 930 ft
Nearby Weather Stations

Elev 930 ft 43.03 °N, 88.19 °W | Updated 27 seconds ago

Light Rain
Light Rain
62.1 °F
Feels Like 62.1 °F
N
0.0
Wind Variable Wind from NNE
Gusts 1.0 mph

Today
High -- | Low -- °F
--% Chance of Precip.
Yesterday
High -- | Low -- °F
Precip. -- in
6:13 AM 7:33 PM
Full, 100% visible
Pressure 30.08 in
Visibility 2.0 miles
Clouds Scattered Clouds 300 ft
Scattered Clouds 700 ft
Mostly Cloudy 4600 ft
Dew Point 61 °F
Humidity 97%
Rainfall 0.13 in
Snow Depth Not available.
UV 0 out of 12
Pollen 5.60 out of 12
Air Quality Not available.
Flu Activity Not available.
METAR KUES 290615Z AUTO 05006KT 2SM -RA SCT003 SCT007 BKN046 15/15 A3008 RMK AO2 P0002
Pressure 30.08 in
Visibility 2.0 miles
Clouds Scattered Clouds 300 ft
Scattered Clouds 700 ft
Mostly Cloudy 4600 ft
Dew Point 61 °F
Humidity 97%
Rainfall 0.13 in
Snow Depth Not available.
UV 0 out of 12
Pollen 5.60 out of 12
Air Quality Not available.
Flu Activity Not available.
METAR KUES 290615Z AUTO 05006KT 2SM -RA SCT003 SCT007 BKN046 15/15 A3008 RMK AO2 P0002

10-Day Weather Forecast

×

Almanac

Astronomy

Aug. 29, 2015 Rise Set
Actual Time
Civil Twilight
Nautical Twilight
Astronomical Twilight
Moon
Length of Visible Light
Length of Day
Tomorrow will be .
, % of the Moon is Illuminated

Today's Extremes

State Highs State Lows

Community

WunderPhotos

Upload Photos

1,850,622 photos uploaded!

WunderBlogs® & News

Nearby

Air Quality

  Air Quality AQ Index Pollutant
Not available.

Snow Depth

Station Depth Elevation

Earthquake Activity

City Distance Mag. Time & Date
Minimum magnitude displayed is 2.5.

Coastal Water Temperatures

Place Temperature

Stations

Nearby Weather Stations

Station Location Temp. Windchill Dew Point Humidity Wind Precip. Elev Updated Type